Time;durP1;ratioP1;P1;durP2;ratioP2;P2;SDS_P1;SDS_P2;PMS_P1;PMS_P2;Temp;Humidity;BMP_temperature;BMP_pressure;BME280_temperature;BME280_humidity;BME280_pressure;Samples;Min_cycle;Max_cycle;Signal;HPM_P1;HPM_P2
2022/01/05 00:01:38;;;;;;;7.63;4.60;;;17.00;58.50;;;;;;5080066;28;20035;-93
2022/01/05 00:04:04;;;;;;;7.05;4.45;;;16.90;58.70;;;;;;5076570;28;20020;-93
2022/01/05 00:06:30;;;;;;;8.98;4.88;;;16.10;60.10;;;;;;5060102;28;20056;-95
2022/01/05 00:08:56;;;;;;;8.30;5.70;;;15.90;60.90;;;;;;5060111;28;20051;-89
2022/01/05 00:11:23;;;;;;;9.70;6.07;;;15.80;61.30;;;;;;5059813;28;20016;-87
2022/01/05 00:13:49;;;;;;;8.60;5.40;;;15.40;62.80;;;;;;5059747;28;20025;-96
2022/01/05 00:16:15;;;;;;;7.65;4.93;;;15.50;62.00;;;;;;5061322;28;20028;-92
2022/01/05 00:18:43;;;;;;;9.75;5.22;;;15.40;62.20;;;;;;5059717;28;20519;-94
2022/01/05 00:21:11;;;;;;;7.70;4.80;;;15.60;61.80;;;;;;5059924;28;20062;-85
2022/01/05 00:23:37;;;;;;;8.18;5.10;;;15.70;61.80;;;;;;5060374;28;20459;-91
2022/01/05 00:26:04;;;;;;;7.38;4.88;;;15.80;61.50;;;;;;5068048;28;20016;-88
2022/01/05 00:28:30;;;;;;;7.95;4.28;;;15.80;62.10;;;;;;5079585;28;20035;-95
2022/01/05 00:30:56;;;;;;;9.18;4.80;;;16.00;61.20;;;;;;5079798;28;20031;-85
2022/01/05 00:33:23;;;;;;;8.48;4.95;;;15.80;61.90;;;;;;5079385;28;20025;-94
2022/01/05 00:35:49;;;;;;;9.55;5.05;;;15.90;61.60;;;;;;5079229;28;20051;-86
2022/01/05 00:38:14;;;;;;;9.02;5.00;;;15.90;60.20;;;;;;5080067;28;20028;-92
2022/01/05 00:40:40;;;;;;;10.55;4.90;;;16.10;60.50;;;;;;5075069;28;20118;-96
2022/01/05 00:43:06;;;;;;;8.40;4.88;;;15.10;63.30;;;;;;5079381;28;20111;-94
2022/01/05 00:45:32;;;;;;;8.45;4.65;;;15.00;62.40;;;;;;5079182;28;20514;-96
2022/01/05 00:47:57;;;;;;;8.77;4.82;;;15.20;62.20;;;;;;5076878;28;20015;-88
2022/01/05 00:50:23;;;;;;;7.75;4.85;;;15.30;62.60;;;;;;5059680;28;20027;-87
2022/01/05 00:52:49;;;;;;;7.05;4.20;;;15.50;62.70;;;;;;5058598;28;20464;-93
2022/01/05 00:55:14;;;;;;;9.60;4.53;;;15.50;62.20;;;;;;5069567;28;20054;-95
2022/01/05 00:57:40;;;;;;;7.78;4.93;;;15.70;62.00;;;;;;5079521;28;20047;-95
2022/01/05 01:00:06;;;;;;;6.93;4.30;;;15.80;62.00;;;;;;5079524;28;20012;-96
2022/01/05 01:02:32;;;;;;;7.88;4.68;;;15.60;62.10;;;;;;5079436;28;20101;-91
2022/01/05 01:04:58;;;;;;;8.23;4.57;;;14.70;64.60;;;;;;5079119;28;20115;-96
2022/01/05 01:07:24;;;;;;;7.43;4.50;;;15.00;63.40;;;;;;5061308;28;20024;-91
2022/01/05 01:09:49;;;;;;;10.35;4.50;;;15.20;63.00;;;;;;5058595;28;20047;-90
2022/01/05 01:12:15;;;;;;;10.70;4.63;;;15.50;62.20;;;;;;5058585;28;20032;-88
2022/01/05 01:14:44;;;;;;;9.98;4.78;;;15.50;60.70;;;;;;5058410;28;20544;-94
2022/01/05 01:17:11;;;;;;;7.95;4.70;;;15.70;60.30;;;;;;5058653;28;20029;-95
2022/01/05 01:19:41;;;;;;;8.57;5.10;;;15.80;60.20;;;;;;5058537;28;20023;-92
2022/01/05 01:22:07;;;;;;;10.18;5.32;;;15.80;60.90;;;;;;5058833;28;20032;-95
2022/01/05 01:24:33;;;;;;;9.35;5.60;;;15.80;60.70;;;;;;5058547;28;20028;-95
2022/01/05 01:27:01;;;;;;;10.10;5.88;;;15.80;60.90;;;;;;5075330;28;20024;-95
2022/01/05 01:29:27;;;;;;;9.95;5.57;;;16.00;60.30;;;;;;5078411;28;20020;-92
2022/01/05 01:31:53;;;;;;;11.40;6.72;;;16.00;60.80;;;;;;5077891;28;20050;-95
2022/01/05 01:34:19;;;;;;;12.88;6.22;;;15.90;60.40;;;;;;5077297;28;20020;-95
2022/01/05 01:36:44;;;;;;;11.68;6.18;;;15.50;60.50;;;;;;5078174;28;20081;-87
2022/01/05 01:39:10;;;;;;;10.07;5.50;;;15.20;62.00;;;;;;5061596;28;20084;-95
2022/01/05 01:41:36;;;;;;;10.20;5.72;;;15.20;61.90;;;;;;5058356;28;20050;-95
2022/01/05 01:44:02;;;;;;;9.38;5.38;;;15.20;62.30;;;;;;5059152;28;20017;-96
2022/01/05 01:46:28;;;;;;;8.27;5.28;;;14.90;62.20;;;;;;5058726;28;20025;-94
2022/01/05 01:48:54;;;;;;;9.05;5.60;;;14.90;61.90;;;;;;5075581;28;20030;-96
2022/01/05 01:51:19;;;;;;;9.80;5.25;;;14.90;62.30;;;;;;5067865;28;20020;-95
2022/01/05 01:53:45;;;;;;;9.35;5.90;;;14.90;63.20;;;;;;5064661;28;20030;-92
2022/01/05 01:56:12;;;;;;;12.30;6.88;;;14.70;63.50;;;;;;5077860;28;20024;-94
2022/01/05 01:58:51;;;;;;;10.48;6.18;;;14.90;62.50;;;;;;5077834;28;20020;-91
2022/01/05 02:01:17;;;;;;;9.65;5.72;;;15.30;61.60;;;;;;5077670;28;20073;-95
2022/01/05 02:03:43;;;;;;;9.88;6.18;;;15.50;61.30;;;;;;5076159;28;20034;-95
2022/01/05 02:06:09;;;;;;;9.93;5.60;;;15.80;60.20;;;;;;5077344;28;20055;-94
2022/01/05 02:08:35;;;;;;;10.50;5.80;;;15.90;59.80;;;;;;5077655;28;20047;-90
2022/01/05 02:11:03;;;;;;;9.32;6.03;;;15.90;59.50;;;;;;5077541;28;20024;-94
2022/01/05 02:13:28;;;;;;;9.90;6.60;;;15.80;59.20;;;;;;5077693;28;20016;-85
2022/01/05 02:15:54;;;;;;;10.25;6.47;;;15.50;59.70;;;;;;5075006;28;20070;-94
2022/01/05 02:20:57;;;;;;;10.95;6.90;;;15.20;60.30;;;;;;5095570;28;20016;-93
2022/01/05 02:23:25;;;;;;;9.65;6.40;;;14.60;62.30;;;;;;5077668;28;20466;-87
2022/01/05 02:25:51;;;;;;;11.70;6.78;;;14.50;62.80;;;;;;5077891;28;20105;-96
2022/01/05 02:28:27;;;;;;;11.25;7.15;;;14.60;62.70;;;;;;5077576;28;20028;-95
2022/01/05 02:30:53;;;;;;;10.30;6.38;;;14.80;62.10;;;;;;5076629;28;20042;-90
2022/01/05 02:33:20;;;;;;;10.18;6.35;;;14.70;61.10;;;;;;5077012;28;20020;-93
2022/01/05 02:35:55;;;;;;;10.77;7.22;;;14.50;61.00;;;;;;5077296;28;20047;-95
2022/01/05 02:38:22;;;;;;;12.95;7.28;;;14.80;60.70;;;;;;5076161;28;20027;-93
2022/01/05 02:40:49;;;;;;;15.07;8.57;;;14.50;61.40;;;;;;5076839;28;20043;-94
2022/01/05 02:43:17;;;;;;;11.15;6.70;;;14.20;62.70;;;;;;5077595;28;20031;-89
2022/01/05 02:45:43;;;;;;;11.02;6.82;;;14.20;62.90;;;;;;5076308;28;20016;-95
2022/01/05 02:48:09;;;;;;;10.63;6.80;;;14.40;61.90;;;;;;5058303;28;20031;-84
2022/01/05 02:50:35;;;;;;;9.32;7.28;;;14.30;61.40;;;;;;5056967;28;20023;-94
2022/01/05 02:53:01;;;;;;;13.50;7.45;;;14.20;61.40;;;;;;5057689;28;20516;-89
2022/01/05 02:55:26;;;;;;;12.15;7.60;;;14.20;62.10;;;;;;5058011;28;20036;-95
2022/01/05 02:57:52;;;;;;;13.82;8.40;;;14.00;63.40;;;;;;5066902;28;20055;-95
2022/01/05 03:00:18;;;;;;;12.70;8.38;;;13.50;64.80;;;;;;5078734;28;20390;-94
2022/01/05 03:02:44;;;;;;;15.57;8.85;;;13.20;65.50;;;;;;5078443;28;20428;-95
2022/01/05 03:05:10;;;;;;;14.38;8.07;;;13.50;65.10;;;;;;5077981;28;20020;-96
2022/01/05 03:07:39;;;;;;;12.55;8.27;;;14.00;64.10;;;;;;5078374;28;20020;-88
2022/01/05 03:10:09;;;;;;;14.45;8.93;;;14.60;62.70;;;;;;5078548;28;20119;-89
2022/01/05 03:12:37;;;;;;;13.73;8.65;;;14.80;62.00;;;;;;5076868;28;20024;-92
2022/01/05 03:15:07;;;;;;;12.50;8.15;;;15.00;62.00;;;;;;5078749;28;20028;-94
2022/01/05 03:17:35;;;;;;;13.30;7.50;;;15.10;61.30;;;;;;5081750;28;20034;-92
2022/01/05 03:20:02;;;;;;;16.15;9.43;;;15.30;60.60;;;;;;5081775;28;20296;-94
2022/01/05 03:22:27;;;;;;;13.50;8.13;;;15.20;61.40;;;;;;5082444;28;20020;-95
2022/01/05 03:24:53;;;;;;;14.02;8.95;;;14.40;62.50;;;;;;5081824;28;20065;-95
2022/01/05 03:27:19;;;;;;;16.77;8.77;;;14.30;63.50;;;;;;5071474;28;20090;-95
2022/01/05 03:29:45;;;;;;;12.90;8.15;;;14.40;62.40;;;;;;5061126;28;20025;-92
2022/01/05 03:32:11;;;;;;;14.73;9.20;;;14.70;62.20;;;;;;5061126;28;20032;-92
2022/01/05 03:34:40;;;;;;;14.77;8.38;;;14.90;61.80;;;;;;5078595;28;20044;-95
2022/01/05 03:37:06;;;;;;;13.98;8.65;;;14.70;62.50;;;;;;5077603;28;20037;-95
2022/01/05 03:39:32;;;;;;;15.57;9.38;;;14.80;62.70;;;;;;5067960;28;20020;-95
2022/01/05 03:41:58;;;;;;;14.43;8.85;;;14.80;62.20;;;;;;5080415;28;20024;-95
2022/01/05 03:44:23;;;;;;;16.73;9.50;;;15.20;61.60;;;;;;5080405;28;20447;-96
2022/01/05 03:46:51;;;;;;;17.70;11.05;;;15.30;60.40;;;;;;5080439;28;20027;-95
2022/01/05 03:49:16;;;;;;;17.20;10.68;;;14.90;61.00;;;;;;5081340;28;20031;-95
2022/01/05 03:51:42;;;;;;;17.73;10.13;;;14.80;61.20;;;;;;5080642;28;20028;-95
2022/01/05 03:54:08;;;;;;;16.48;9.65;;;15.10;60.60;;;;;;5073359;28;20483;-94
2022/01/05 03:56:33;;;;;;;16.42;9.50;;;15.30;60.50;;;;;;5060301;28;20055;-90
2022/01/05 03:58:59;;;;;;;15.93;9.55;;;15.10;61.60;;;;;;5060545;28;20101;-92
2022/01/05 04:01:41;;;;;;;18.08;10.27;;;14.90;62.40;;;;;;5060411;28;20024;-94
2022/01/05 04:04:07;;;;;;;19.15;10.63;;;14.80;61.20;;;;;;5082653;28;20026;-96
2022/01/05 04:06:32;;;;;;;16.17;9.45;;;14.90;61.10;;;;;;5060495;28;20048;-95
2022/01/05 04:08:58;;;;;;;17.92;10.55;;;15.20;60.80;;;;;;5060251;28;20443;-95
2022/01/05 04:11:24;;;;;;;14.50;9.02;;;15.10;61.00;;;;;;5060251;28;20016;-89
2022/01/05 04:13:49;;;;;;;14.85;9.75;;;15.10;60.90;;;;;;5059970;28;20127;-96
2022/01/05 04:16:15;;;;;;;14.98;9.57;;;14.80;61.00;;;;;;5060190;28;20493;-88
2022/01/05 04:18:41;;;;;;;15.48;9.77;;;14.80;61.10;;;;;;5059979;28;20017;-94
2022/01/05 04:21:06;;;;;;;14.82;8.63;;;15.00;60.60;;;;;;5060920;28;20044;-96
2022/01/05 04:23:32;;;;;;;15.23;8.70;;;15.10;61.20;;;;;;5068917;28;20016;-89
2022/01/05 04:25:58;;;;;;;16.20;10.18;;;15.00;61.40;;;;;;5078261;28;20039;-92
2022/01/05 04:28:25;;;;;;;17.15;10.10;;;14.90;61.20;;;;;;5079218;28;20023;-95
2022/01/05 04:30:50;;;;;;;16.25;9.27;;;15.10;60.90;;;;;;5078266;28;20048;-95
2022/01/05 04:33:16;;;;;;;14.85;9.27;;;15.10;60.70;;;;;;5059572;28;20041;-95
2022/01/05 04:35:42;;;;;;;14.45;9.60;;;15.00;60.80;;;;;;5056307;28;20067;-95
2022/01/05 04:38:07;;;;;;;16.67;8.65;;;15.00;60.60;;;;;;5056304;28;20029;-91
2022/01/05 04:40:33;;;;;;;13.15;7.72;;;15.30;60.50;;;;;;5057146;28;20036;-95
2022/01/05 04:42:59;;;;;;;15.50;8.52;;;15.10;61.60;;;;;;5070789;28;20056;-92
2022/01/05 04:45:24;;;;;;;15.50;8.48;;;14.90;62.50;;;;;;5075825;28;20020;-94
2022/01/05 04:47:50;;;;;;;13.70;8.85;;;15.10;61.30;;;;;;5076076;28;20020;-94
2022/01/05 04:50:18;;;;;;;15.27;7.88;;;15.20;61.20;;;;;;5076371;28;20016;-93
2022/01/05 04:52:46;;;;;;;14.15;7.40;;;15.40;60.70;;;;;;5075916;28;20024;-95
2022/01/05 04:55:11;;;;;;;14.07;8.10;;;15.50;60.80;;;;;;5076236;28;20025;-90
2022/01/05 04:57:38;;;;;;;13.82;9.15;;;15.40;61.50;;;;;;5061483;28;20025;-94
2022/01/05 05:00:04;;;;;;;14.77;9.77;;;14.70;63.10;;;;;;5056078;28;20394;-95
2022/01/05 05:02:30;;;;;;;15.65;8.98;;;14.70;63.10;;;;;;5061651;28;20089;-90
2022/01/05 05:04:56;;;;;;;13.90;8.75;;;15.00;62.50;;;;;;5074793;28;20107;-85
2022/01/05 05:07:21;;;;;;;14.20;8.63;;;15.00;61.20;;;;;;5075593;28;20028;-95
2022/01/05 05:09:47;;;;;;;14.20;8.55;;;15.10;61.20;;;;;;5075627;28;20020;-90
2022/01/05 05:12:13;;;;;;;14.93;8.70;;;15.40;60.40;;;;;;5075815;28;20475;-95
2022/01/05 05:14:38;;;;;;;15.30;8.60;;;15.40;60.70;;;;;;5069225;28;20009;-93
2022/01/05 05:17:04;;;;;;;20.23;10.27;;;15.50;60.30;;;;;;5066312;28;20507;-82
2022/01/05 05:19:32;;;;;;;13.65;8.07;;;15.60;60.20;;;;;;5070572;28;20016;-93
2022/01/05 05:21:58;;;;;;;16.67;9.50;;;15.70;59.60;;;;;;5059027;28;20058;-94
2022/01/05 05:24:24;;;;;;;13.85;7.70;;;15.70;60.10;;;;;;5055279;28;20102;-93
2022/01/05 05:26:49;;;;;;;14.90;8.70;;;15.90;59.70;;;;;;5054926;28;20558;-89
2022/01/05 05:29:15;;;;;;;13.30;7.68;;;15.60;59.90;;;;;;5055488;28;20052;-93
2022/01/05 05:31:41;;;;;;;14.40;8.07;;;15.30;60.30;;;;;;5056797;28;20025;-95
2022/01/05 05:34:06;;;;;;;12.77;7.82;;;15.10;61.20;;;;;;5072390;28;20099;-91
2022/01/05 05:36:32;;;;;;;13.02;7.88;;;15.20;60.80;;;;;;5072870;28;20471;-90
2022/01/05 05:38:58;;;;;;;13.80;8.40;;;15.20;61.40;;;;;;5071891;28;20107;-96
2022/01/05 05:41:23;;;;;;;13.77;8.30;;;15.30;61.70;;;;;;5056046;28;20523;-96
2022/01/05 05:43:49;;;;;;;15.07;7.88;;;15.40;61.70;;;;;;5068300;28;20074;-94
2022/01/05 05:46:16;;;;;;;15.90;9.23;;;15.50;60.60;;;;;;5058781;28;20032;-87
2022/01/05 05:48:42;;;;;;;13.60;7.78;;;15.60;60.30;;;;;;5059155;28;20098;-84
2022/01/05 05:51:08;;;;;;;13.65;8.43;;;15.60;60.40;;;;;;5074726;28;20021;-91
2022/01/05 05:53:34;;;;;;;15.38;8.98;;;15.00;62.30;;;;;;5075914;28;20028;-85
2022/01/05 05:55:59;;;;;;;15.82;8.88;;;14.90;62.10;;;;;;5075823;28;20467;-90
2022/01/05 05:58:25;;;;;;;13.77;8.90;;;15.00;61.60;;;;;;5077422;28;20059;-92
2022/01/05 06:00:51;;;;;;;13.75;8.90;;;15.10;61.30;;;;;;5076971;28;20017;-89
2022/01/05 06:03:17;;;;;;;14.52;9.07;;;15.20;61.00;;;;;;5076898;28;20024;-91
2022/01/05 06:05:42;;;;;;;12.20;7.97;;;15.40;60.60;;;;;;5075439;28;20012;-87
2022/01/05 06:08:08;;;;;;;16.00;8.75;;;15.50;60.50;;;;;;5075208;28;20035;-90
2022/01/05 06:10:34;;;;;;;13.65;7.97;;;15.50;60.10;;;;;;5074672;28;20371;-86
2022/01/05 06:13:00;;;;;;;12.80;8.57;;;15.20;60.10;;;;;;5073942;28;20055;-84
2022/01/05 06:15:25;;;;;;;14.45;8.98;;;14.90;60.60;;;;;;5074988;28;20027;-88
2022/01/05 06:17:51;;;;;;;15.27;9.20;;;15.00;60.60;;;;;;5074138;28;20032;-91
2022/01/05 06:20:21;;;;;;;13.77;9.15;;;15.20;60.20;;;;;;5073188;28;20048;-81
2022/01/05 06:22:49;;;;;;;14.47;8.37;;;15.40;60.00;;;;;;5073591;28;20024;-87
2022/01/05 06:25:15;;;;;;;14.43;9.38;;;15.40;60.10;;;;;;5073970;28;20360;-92
2022/01/05 06:27:40;;;;;;;15.00;9.38;;;15.50;60.60;;;;;;5073568;28;20107;-94
2022/01/05 06:30:08;;;;;;;13.40;8.60;;;15.20;61.10;;;;;;5073910;28;20107;-93
2022/01/05 06:32:44;;;;;;;19.52;10.88;;;14.40;63.00;;;;;;5073285;28;20047;-81
2022/01/05 06:35:10;;;;;;;24.83;17.13;;;13.80;64.30;;;;;;5073629;28;20075;-90
2022/01/05 06:37:45;;;;;;;19.85;14.10;;;13.30;66.00;;;;;;5073511;28;20123;-95
2022/01/05 06:40:11;;;;;;;27.08;16.83;;;13.60;65.70;;;;;;5073254;28;20078;-81
2022/01/05 06:42:37;;;;;;;19.83;12.60;;;14.10;64.10;;;;;;5072193;28;20016;-92
2022/01/05 06:45:03;;;;;;;21.35;13.57;;;14.50;62.80;;;;;;5055476;28;20074;-93
2022/01/05 06:47:34;;;;;;;17.02;10.05;;;14.80;61.70;;;;;;5053769;28;20025;-81
2022/01/05 06:49:59;;;;;;;20.05;11.90;;;14.50;61.40;;;;;;5060427;28;20044;-94
2022/01/05 06:52:25;;;;;;;21.08;12.98;;;14.70;61.70;;;;;;5058249;28;20071;-83
2022/01/05 06:54:51;;;;;;;25.48;15.90;;;14.70;62.20;;;;;;5071203;28;20073;-84
2022/01/05 06:57:17;;;;;;;26.67;14.93;;;14.90;61.80;;;;;;5072239;28;20043;-82
2022/01/05 06:59:43;;;;;;;22.60;13.23;;;15.20;60.90;;;;;;5064927;28;20411;-83
2022/01/05 07:02:08;;;;;;;19.67;13.82;;;15.30;60.90;;;;;;5052488;28;20023;-94
2022/01/05 07:04:34;;;;;;;19.83;12.80;;;15.30;61.40;;;;;;5052344;28;20017;-83
2022/01/05 07:07:00;;;;;;;29.10;16.13;;;15.30;60.60;;;;;;5052155;28;20480;-88
2022/01/05 07:09:26;;;;;;;35.17;20.83;;;15.10;60.80;;;;;;5052319;28;20025;-90
2022/01/05 07:11:52;;;;;;;39.75;22.75;;;15.30;60.60;;;;;;5052401;28;20079;-85
2022/01/05 07:14:17;;;;;;;34.10;20.83;;;15.50;60.60;;;;;;5052276;28;20085;-96
2022/01/05 07:16:43;;;;;;;41.85;25.95;;;15.40;61.30;;;;;;5064562;28;20032;-90
2022/01/05 07:19:09;;;;;;;32.83;20.52;;;15.50;61.70;;;;;;5072646;28;20025;-94
2022/01/05 07:21:35;;;;;;;41.42;23.33;;;15.60;61.20;;;;;;5072525;28;20560;-95
2022/01/05 07:24:01;;;;;;;34.17;20.45;;;15.60;61.00;;;;;;5072306;28;20039;-95
2022/01/05 07:26:27;;;;;;;28.25;17.08;;;15.60;61.00;;;;;;5072650;28;20481;-94
2022/01/05 07:28:54;;;;;;;26.98;16.25;;;15.70;61.30;;;;;;5072207;28;20111;-85
2022/01/05 07:31:20;;;;;;;24.73;15.20;;;15.90;61.00;;;;;;5072412;28;20046;-89
2022/01/05 07:33:46;;;;;;;20.95;12.57;;;16.00;60.60;;;;;;5072236;28;20419;-90
2022/01/05 07:36:12;;;;;;;23.58;13.23;;;16.10;60.40;;;;;;5072125;28;20040;-95
2022/01/05 07:38:38;;;;;;;21.48;13.95;;;15.60;61.80;;;;;;5072648;28;20031;-93
2022/01/05 07:41:11;;;;;;;28.77;17.33;;;15.50;61.70;;;;;;5072728;28;20028;-94
2022/01/05 07:43:45;;;;;;;28.65;16.98;;;15.80;61.20;;;;;;5073512;28;20075;-95
2022/01/05 07:46:11;;;;;;;20.85;12.98;;;16.10;60.50;;;;;;5072808;28;20016;-90
2022/01/05 07:48:36;;;;;;;21.15;14.32;;;15.90;61.20;;;;;;5072557;28;20035;-90
2022/01/05 07:51:02;;;;;;;26.15;16.13;;;15.60;61.30;;;;;;5073100;28;20017;-84
2022/01/05 07:53:28;;;;;;;25.25;16.70;;;15.40;62.30;;;;;;5058207;28;20115;-90
2022/01/05 07:55:54;;;;;;;24.15;16.67;;;15.70;61.70;;;;;;5064779;28;20031;-84
2022/01/05 07:58:21;;;;;;;27.00;17.02;;;15.90;61.60;;;;;;5056233;28;20040;-85
2022/01/05 08:00:47;;;;;;;36.65;21.15;;;16.00;61.40;;;;;;5053215;28;20013;-84
2022/01/05 08:03:13;;;;;;;28.38;17.90;;;16.00;61.20;;;;;;5063351;28;20025;-90
2022/01/05 08:05:38;;;;;;;28.35;17.73;;;16.30;60.80;;;;;;5072800;28;20024;-89
2022/01/05 08:08:04;;;;;;;24.92;16.13;;;16.40;60.60;;;;;;5068695;28;21473;-85
2022/01/05 08:10:33;;;;;;;28.08;17.05;;;16.40;60.40;;;;;;5058211;28;20108;-86
2022/01/05 08:12:58;;;;;;;28.25;16.15;;;16.40;60.80;;;;;;5067942;28;20025;-95
2022/01/05 08:15:26;;;;;;;29.05;18.10;;;16.40;60.80;;;;;;5072285;28;20017;-94
2022/01/05 08:17:52;;;;;;;29.15;19.75;;;16.40;61.20;;;;;;5075333;28;20379;-86
2022/01/05 08:20:20;;;;;;;24.58;15.80;;;16.50;60.70;;;;;;5076067;28;20016;-93
2022/01/05 08:22:46;;;;;;;101.90;44.33;;;16.40;61.10;;;;;;5075063;28;20032;-84
2022/01/05 08:25:17;;;;;;;95.75;40.95;;;16.40;61.30;;;;;;5068080;28;20029;-88
2022/01/05 08:27:47;;;;;;;58.97;27.30;;;16.30;61.60;;;;;;5054567;28;20021;-95
2022/01/05 08:30:22;;;;;;;28.10;16.75;;;16.50;60.70;;;;;;5063634;28;20028;-85
2022/01/05 08:32:55;;;;;;;19.27;11.40;;;16.80;60.40;;;;;;5057069;28;20028;-89
2022/01/05 08:35:22;;;;;;;16.55;9.70;;;16.50;60.80;;;;;;5054657;28;20073;-84
2022/01/05 08:37:48;;;;;;;16.58;9.65;;;16.40;60.90;;;;;;5060423;28;20127;-95
2022/01/05 08:40:16;;;;;;;18.10;10.38;;;16.50;61.10;;;;;;5075096;28;20017;-90
2022/01/05 08:42:42;;;;;;;19.52;12.50;;;16.70;60.80;;;;;;5074894;28;20103;-85
2022/01/05 08:45:08;;;;;;;29.40;17.23;;;16.90;60.00;;;;;;5075722;28;20108;-92
2022/01/05 08:47:34;;;;;;;33.55;18.90;;;16.80;60.50;;;;;;5058376;28;20402;-88
2022/01/05 08:50:00;;;;;;;28.45;16.30;;;16.80;60.70;;;;;;5054490;28;20017;-86
2022/01/05 08:52:26;;;;;;;15.40;10.18;;;16.80;60.60;;;;;;5074615;28;20100;-89
2022/01/05 08:54:52;;;;;;;14.82;8.85;;;16.40;61.30;;;;;;5076276;28;20367;-91
2022/01/05 08:57:18;;;;;;;14.20;8.70;;;16.00;62.20;;;;;;5057638;28;20025;-87
2022/01/05 08:59:44;;;;;;;10.10;6.30;;;15.60;63.70;;;;;;5055543;28;20158;-95
2022/01/05 09:02:13;;;;;;;8.38;5.40;;;15.80;63.90;;;;;;5054899;28;20059;-92
2022/01/05 09:04:40;;;;;;;8.73;5.05;;;15.50;64.70;;;;;;5054433;28;20016;-95
2022/01/05 09:07:05;;;;;;;7.50;4.57;;;15.50;65.10;;;;;;5056105;28;20021;-91
2022/01/05 09:09:31;;;;;;;8.23;4.40;;;15.50;65.00;;;;;;5054298;28;20036;-95
2022/01/05 09:11:57;;;;;;;9.38;4.28;;;15.80;65.10;;;;;;5054314;28;20115;-87
2022/01/05 09:14:23;;;;;;;12.25;6.88;;;15.50;65.00;;;;;;5054417;28;20032;-86
2022/01/05 09:16:48;;;;;;;7.70;4.90;;;15.30;66.00;;;;;;5055453;28;20024;-94
2022/01/05 09:19:14;;;;;;;7.47;4.82;;;15.00;67.00;;;;;;5054533;28;20116;-93
2022/01/05 09:21:40;;;;;;;7.05;4.40;;;15.10;66.50;;;;;;5054017;28;20024;-95
2022/01/05 09:24:06;;;;;;;6.32;4.18;;;15.20;66.00;;;;;;5054768;28;20021;-90
2022/01/05 09:26:32;;;;;;;7.10;4.78;;;15.00;66.00;;;;;;5054593;28;20028;-94
2022/01/05 09:28:58;;;;;;;8.05;4.50;;;15.10;66.30;;;;;;5055021;28;20020;-93
2022/01/05 09:31:23;;;;;;;8.15;5.43;;;15.00;66.30;;;;;;5054313;28;20020;-91
2022/01/05 09:33:49;;;;;;;8.23;4.95;;;15.10;65.90;;;;;;5054307;28;20399;-88
2022/01/05 09:36:19;;;;;;;15.45;10.13;;;15.00;66.10;;;;;;5054272;28;20130;-95
2022/01/05 09:44:04;;;;;;;10.52;6.95;;;14.90;65.80;;;;;;5055381;28;20372;-94
2022/01/05 09:47:11;;;;;;;12.20;7.00;;;15.00;66.20;;;;;;5053813;28;20475;-93
2022/01/05 09:49:38;;;;;;;8.95;6.43;;;15.50;65.20;;;;;;4957859;28;20391;-84
2022/01/05 09:52:11;;;;;;;7.82;5.20;;;15.80;64.00;;;;;;4974121;28;20470;-91
2022/01/05 09:54:42;;;;;;;7.65;5.57;;;15.90;63.70;;;;;;4958328;28;20030;-96
2022/01/05 09:57:12;;;;;;;9.95;6.20;;;16.00;63.30;;;;;;4974138;28;20034;-92
2022/01/05 09:59:38;;;;;;;11.77;6.97;;;16.00;63.20;;;;;;4957793;28;20110;-85
2022/01/05 10:02:07;;;;;;;8.93;6.57;;;16.00;63.60;;;;;;4973832;28;20031;-93
2022/01/05 10:04:35;;;;;;;11.00;8.55;;;16.40;62.80;;;;;;4973929;28;20027;-96
2022/01/05 10:07:00;;;;;;;19.88;14.15;;;16.80;61.80;;;;;;4973932;28;20059;-93
2022/01/05 10:09:26;;;;;;;11.75;8.80;;;16.70;62.20;;;;;;4957943;28;20027;-84
2022/01/05 10:11:52;;;;;;;21.90;13.57;;;16.40;62.80;;;;;;4957759;28;20119;-93
2022/01/05 10:14:18;;;;;;;18.77;11.65;;;16.10;63.80;;;;;;4957516;28;20057;-95
2022/01/05 10:17:09;;;;;;;19.55;13.50;;;15.90;64.60;;;;;;4957473;28;20034;-93
2022/01/05 10:19:36;;;;;;;17.63;12.02;;;15.80;65.50;;;;;;4974792;28;20040;-84
2022/01/05 10:22:04;;;;;;;14.80;12.27;;;15.90;64.90;;;;;;5054143;28;20046;-94
2022/01/05 10:24:46;;;;;;;11.55;9.18;;;15.70;65.10;;;;;;5053946;28;20083;-90
2022/01/05 10:27:21;;;;;;;12.90;8.40;;;15.20;66.80;;;;;;5053102;28;20384;-95
2022/01/05 10:29:52;;;;;;;9.02;7.25;;;14.80;67.50;;;;;;5053008;28;20108;-94
2022/01/05 10:32:19;;;;;;;9.25;7.38;;;15.10;67.00;;;;;;5053131;28;20030;-95
2022/01/05 10:35:01;;;;;;;10.52;8.57;;;15.30;66.60;;;;;;5052935;28;20044;-95
2022/01/05 10:37:28;;;;;;;12.02;10.05;;;14.90;67.60;;;;;;5052587;28;20034;-83
2022/01/05 10:40:20;;;;;;;9.80;7.85;;;14.90;67.70;;;;;;5053162;28;20545;-95
2022/01/05 10:42:47;;;;;;;11.95;9.23;;;14.70;68.20;;;;;;5052882;28;20016;-92
2022/01/05 10:45:16;;;;;;;18.58;14.98;;;14.50;69.00;;;;;;5052522;28;20024;-89
2022/01/05 10:47:42;;;;;;;14.73;10.70;;;14.50;69.10;;;;;;5052477;28;20032;-93
2022/01/05 10:50:19;;;;;;;10.35;7.10;;;14.80;68.40;;;;;;5053731;28;20365;-85
2022/01/05 10:52:54;;;;;;;10.77;9.00;;;14.90;67.70;;;;;;5052813;28;20670;-94
2022/01/05 10:55:22;;;;;;;12.40;9.55;;;14.70;68.60;;;;;;5052991;28;20021;-95
2022/01/05 10:58:28;;;;;;;11.27;8.68;;;14.40;69.00;;;;;;5052738;28;20035;-95
2022/01/05 11:00:55;;;;;;;10.63;9.10;;;14.20;69.10;;;;;;5048716;28;20041;-89
2022/01/05 11:03:22;;;;;;;10.95;7.47;;;13.80;71.70;;;;;;5052726;28;20460;-95
2022/01/05 11:06:06;;;;;;;10.23;7.60;;;14.00;71.00;;;;;;5053736;28;20021;-92
2022/01/05 11:08:33;;;;;;;8.50;6.18;;;14.10;70.60;;;;;;5052766;28;20056;-93
2022/01/05 11:11:04;;;;;;;9.15;6.75;;;13.80;71.10;;;;;;5052729;28;20020;-93
2022/01/05 11:13:29;;;;;;;;;;;13.70;71.50;;;;;;5054049;28;20460;-88
2022/01/05 11:16:01;;;;;;;8.95;6.10;;;13.70;72.30;;;;;;5053585;28;20030;-87
2022/01/05 11:18:31;;;;;;;8.07;6.28;;;13.80;71.70;;;;;;5054597;28;20128;-94
2022/01/05 11:21:03;;;;;;;9.30;6.68;;;13.80;71.60;;;;;;5052865;28;20341;-89
2022/01/05 11:23:31;;;;;;;8.85;6.80;;;13.90;71.10;;;;;;5053307;28;20025;-86
2022/01/05 11:25:59;;;;;;;8.70;7.00;;;14.00;70.50;;;;;;5052303;28;20321;-90
2022/01/05 11:28:26;;;;;;;8.77;6.90;;;14.10;70.20;;;;;;5052850;28;20020;-87
2022/01/05 11:30:53;;;;;;;8.10;5.70;;;13.80;70.00;;;;;;5052466;28;20452;-83
2022/01/05 11:33:20;;;;;;;8.27;6.13;;;13.60;71.40;;;;;;5052266;28;20035;-93
2022/01/05 11:35:49;;;;;;;6.97;5.40;;;13.50;71.10;;;;;;5067005;28;20383;-85
2022/01/05 11:38:15;;;;;;;7.55;5.57;;;13.20;71.20;;;;;;5059053;28;20036;-83
2022/01/05 11:40:51;;;;;;;8.23;5.80;;;13.30;72.10;;;;;;5077776;28;20021;-90
2022/01/05 11:43:35;;;;;;;6.30;4.70;;;13.20;71.30;;;;;;5059518;28;20020;-85
2022/01/05 11:46:18;;;;;;;6.32;4.72;;;12.80;71.90;;;;;;5059333;28;20023;-83
2022/01/05 11:49:01;;;;;;;16.63;11.48;;;12.70;72.70;;;;;;5076940;28;20398;-86
2022/01/05 11:51:42;;;;;;;5.75;3.47;;;12.60;71.30;;;;;;5058924;28;20336;-90
2022/01/05 11:54:26;;;;;;;28.67;16.42;;;12.30;72.20;;;;;;5058799;28;20020;-87
2022/01/05 11:56:53;;;;;;;30.15;18.90;;;12.80;71.70;;;;;;5076593;28;20035;-88
2022/01/05 11:59:35;;;;;;;15.40;9.68;;;12.90;70.50;;;;;;5058896;28;20051;-84
2022/01/05 12:02:08;;;;;;;9.98;6.53;;;13.20;70.10;;;;;;5058857;28;20043;-86
2022/01/05 12:04:59;;;;;;;6.40;3.80;;;13.30;69.40;;;;;;5059083;28;20086;-85
2022/01/05 12:07:36;;;;;;;5.68;3.60;;;13.40;68.90;;;;;;5059052;28;20058;-84
2022/01/05 12:13:05;;;;;;;8.23;5.22;;;13.30;69.50;;;;;;5014842;28;20072;-90
2022/01/05 12:15:56;;;;;;;6.88;4.45;;;13.10;70.10;;;;;;4998338;28;20096;-89
2022/01/05 12:18:30;;;;;;;10.43;5.05;;;13.40;68.30;;;;;;5014737;28;20037;-90
2022/01/05 12:21:49;;;;;;;5.13;2.95;;;12.80;68.40;;;;;;5014575;28;20022;-92
2022/01/05 12:24:15;;;;;;;5.38;3.08;;;13.00;68.50;;;;;;5003835;28;20034;-90
2022/01/05 12:26:43;;;;;;;4.30;2.00;;;13.20;68.00;;;;;;5014618;28;20030;-87
2022/01/05 12:29:10;;;;;;;3.55;2.00;;;13.30;65.50;;;;;;4998280;28;20038;-94
2022/01/05 12:31:47;;;;;;;4.05;2.50;;;13.20;67.60;;;;;;5015002;28;20029;-88
2022/01/05 12:34:50;;;;;;;4.20;2.67;;;13.20;66.50;;;;;;5013665;28;20065;-94
2022/01/05 12:37:37;;;;;;;4.75;3.35;;;13.20;65.60;;;;;;4997580;28;20040;-83
2022/01/05 12:40:28;;;;;;;4.63;2.50;;;12.80;67.40;;;;;;4998447;28;20411;-92
2022/01/05 12:43:13;;;;;;;3.42;1.85;;;12.60;68.90;;;;;;4997979;28;20034;-95
2022/01/05 12:45:56;;;;;;;3.97;2.50;;;13.40;67.10;;;;;;5014274;28;20021;-92
2022/01/05 12:48:35;;;;;;;5.35;2.55;;;13.20;66.90;;;;;;5017424;28;20147;-94
2022/01/05 12:51:32;;;;;;;4.07;2.20;;;13.10;67.80;;;;;;5055134;28;20566;-89
2022/01/05 12:54:08;;;;;;;3.97;2.17;;;13.10;67.50;;;;;;5055179;28;20017;-87
2022/01/05 12:56:36;;;;;;;5.45;3.38;;;13.10;67.40;;;;;;5054500;28;20025;-94